sensor_id;sensor_type;location;lat;lon;timestamp;P1;durP1;ratioP1;P2;durP2;ratioP2
34060;SDS011;20336;-33.424;-70.638;2023-10-08T00:00:04;6.10;;;2.35;;
34060;SDS011;20336;-33.424;-70.638;2023-10-08T00:02:51;5.78;;;2.25;;
34060;SDS011;20336;-33.424;-70.638;2023-10-08T00:05:18;11.73;;;2.80;;
34060;SDS011;20336;-33.424;-70.638;2023-10-08T00:07:47;9.48;;;2.22;;
34060;SDS011;20336;-33.424;-70.638;2023-10-08T00:10:14;5.80;;;2.35;;
34060;SDS011;20336;-33.424;-70.638;2023-10-08T00:12:41;9.50;;;2.22;;
34060;SDS011;20336;-33.424;-70.638;2023-10-08T00:15:09;10.48;;;2.70;;
34060;SDS011;20336;-33.424;-70.638;2023-10-08T00:17:36;11.43;;;3.13;;
34060;SDS011;20336;-33.424;-70.638;2023-10-08T00:20:03;9.30;;;2.88;;
34060;SDS011;20336;-33.424;-70.638;2023-10-08T00:22:31;10.63;;;3.25;;
34060;SDS011;20336;-33.424;-70.638;2023-10-08T00:25:01;8.35;;;2.58;;
34060;SDS011;20336;-33.424;-70.638;2023-10-08T00:27:36;8.07;;;2.50;;
34060;SDS011;20336;-33.424;-70.638;2023-10-08T00:30:04;8.40;;;2.33;;
34060;SDS011;20336;-33.424;-70.638;2023-10-08T00:32:43;9.85;;;2.65;;
34060;SDS011;20336;-33.424;-70.638;2023-10-08T00:35:10;7.18;;;2.53;;
34060;SDS011;20336;-33.424;-70.638;2023-10-08T00:37:46;8.35;;;2.50;;
34060;SDS011;20336;-33.424;-70.638;2023-10-08T00:40:14;9.68;;;2.40;;
34060;SDS011;20336;-33.424;-70.638;2023-10-08T00:42:47;9.25;;;2.95;;
34060;SDS011;20336;-33.424;-70.638;2023-10-08T00:45:16;7.78;;;2.63;;
34060;SDS011;20336;-33.424;-70.638;2023-10-08T00:47:44;9.95;;;2.08;;
34060;SDS011;20336;-33.424;-70.638;2023-10-08T00:50:12;14.10;;;4.88;;
34060;SDS011;20336;-33.424;-70.638;2023-10-08T00:52:47;7.93;;;3.42;;
34060;SDS011;20336;-33.424;-70.638;2023-10-08T00:55:35;7.28;;;2.65;;
34060;SDS011;20336;-33.424;-70.638;2023-10-08T00:58:02;7.72;;;2.60;;
34060;SDS011;20336;-33.424;-70.638;2023-10-08T01:00:34;7.65;;;2.38;;
34060;SDS011;20336;-33.424;-70.638;2023-10-08T01:03:06;6.13;;;2.33;;
34060;SDS011;20336;-33.424;-70.638;2023-10-08T01:05:41;7.00;;;3.37;;
34060;SDS011;20336;-33.424;-70.638;2023-10-08T01:08:11;11.60;;;3.10;;
34060;SDS011;20336;-33.424;-70.638;2023-10-08T01:10:43;9.97;;;3.20;;
34060;SDS011;20336;-33.424;-70.638;2023-10-08T01:13:13;9.53;;;2.73;;
34060;SDS011;20336;-33.424;-70.638;2023-10-08T01:15:46;10.33;;;2.70;;
34060;SDS011;20336;-33.424;-70.638;2023-10-08T01:18:16;8.33;;;3.00;;
34060;SDS011;20336;-33.424;-70.638;2023-10-08T01:20:50;8.63;;;3.10;;
34060;SDS011;20336;-33.424;-70.638;2023-10-08T01:23:18;8.23;;;3.87;;
34060;SDS011;20336;-33.424;-70.638;2023-10-08T01:25:52;7.83;;;2.73;;
34060;SDS011;20336;-33.424;-70.638;2023-10-08T01:28:38;10.03;;;3.10;;
34060;SDS011;20336;-33.424;-70.638;2023-10-08T01:31:06;12.33;;;3.13;;
34060;SDS011;20336;-33.424;-70.638;2023-10-08T01:33:35;6.47;;;2.83;;
34060;SDS011;20336;-33.424;-70.638;2023-10-08T01:36:12;12.43;;;3.40;;
34060;SDS011;20336;-33.424;-70.638;2023-10-08T01:38:39;7.67;;;3.00;;
34060;SDS011;20336;-33.424;-70.638;2023-10-08T01:41:07;13.47;;;3.23;;
34060;SDS011;20336;-33.424;-70.638;2023-10-08T01:43:45;9.07;;;3.43;;
34060;SDS011;20336;-33.424;-70.638;2023-10-08T01:46:12;9.20;;;2.80;;
34060;SDS011;20336;-33.424;-70.638;2023-10-08T01:48:41;7.60;;;3.00;;
34060;SDS011;20336;-33.424;-70.638;2023-10-08T01:51:10;9.07;;;3.30;;
34060;SDS011;20336;-33.424;-70.638;2023-10-08T01:53:45;12.87;;;4.90;;
34060;SDS011;20336;-33.424;-70.638;2023-10-08T01:56:13;9.83;;;3.43;;
34060;SDS011;20336;-33.424;-70.638;2023-10-08T01:58:40;10.43;;;3.07;;
34060;SDS011;20336;-33.424;-70.638;2023-10-08T02:01:07;9.90;;;2.87;;
34060;SDS011;20336;-33.424;-70.638;2023-10-08T02:03:37;9.73;;;2.90;;
34060;SDS011;20336;-33.424;-70.638;2023-10-08T02:06:04;7.53;;;2.40;;
34060;SDS011;20336;-33.424;-70.638;2023-10-08T02:08:34;8.97;;;3.00;;
34060;SDS011;20336;-33.424;-70.638;2023-10-08T02:11:02;9.00;;;3.10;;
34060;SDS011;20336;-33.424;-70.638;2023-10-08T02:13:29;11.27;;;3.17;;
34060;SDS011;20336;-33.424;-70.638;2023-10-08T02:16:00;15.37;;;5.30;;
34060;SDS011;20336;-33.424;-70.638;2023-10-08T02:18:27;7.17;;;2.37;;
34060;SDS011;20336;-33.424;-70.638;2023-10-08T02:20:56;6.93;;;2.90;;
34060;SDS011;20336;-33.424;-70.638;2023-10-08T02:23:24;12.70;;;2.90;;
34060;SDS011;20336;-33.424;-70.638;2023-10-08T02:25:51;9.83;;;2.80;;
34060;SDS011;20336;-33.424;-70.638;2023-10-08T02:28:20;6.60;;;2.30;;
34060;SDS011;20336;-33.424;-70.638;2023-10-08T02:30:49;10.77;;;4.03;;
34060;SDS011;20336;-33.424;-70.638;2023-10-08T02:33:16;8.00;;;2.70;;
34060;SDS011;20336;-33.424;-70.638;2023-10-08T02:35:44;10.80;;;3.13;;
34060;SDS011;20336;-33.424;-70.638;2023-10-08T02:38:12;11.47;;;3.10;;
34060;SDS011;20336;-33.424;-70.638;2023-10-08T02:40:41;12.07;;;2.80;;
34060;SDS011;20336;-33.424;-70.638;2023-10-08T02:43:16;7.17;;;2.57;;
34060;SDS011;20336;-33.424;-70.638;2023-10-08T02:45:43;9.30;;;3.03;;
34060;SDS011;20336;-33.424;-70.638;2023-10-08T02:48:15;9.63;;;2.90;;
34060;SDS011;20336;-33.424;-70.638;2023-10-08T02:50:43;7.97;;;2.93;;
34060;SDS011;20336;-33.424;-70.638;2023-10-08T02:53:11;8.57;;;2.80;;
34060;SDS011;20336;-33.424;-70.638;2023-10-08T02:55:38;7.17;;;2.87;;
34060;SDS011;20336;-33.424;-70.638;2023-10-08T02:58:10;8.77;;;2.97;;
34060;SDS011;20336;-33.424;-70.638;2023-10-08T03:00:39;6.47;;;2.83;;
34060;SDS011;20336;-33.424;-70.638;2023-10-08T03:03:06;6.90;;;2.57;;
34060;SDS011;20336;-33.424;-70.638;2023-10-08T03:05:41;7.47;;;2.77;;
34060;SDS011;20336;-33.424;-70.638;2023-10-08T03:08:09;6.10;;;2.43;;
34060;SDS011;20336;-33.424;-70.638;2023-10-08T03:10:39;8.93;;;2.77;;
34060;SDS011;20336;-33.424;-70.638;2023-10-08T03:13:07;15.23;;;2.90;;
34060;SDS011;20336;-33.424;-70.638;2023-10-08T03:15:40;9.73;;;2.83;;
34060;SDS011;20336;-33.424;-70.638;2023-10-08T03:18:25;9.10;;;3.07;;
34060;SDS011;20336;-33.424;-70.638;2023-10-08T03:21:04;8.13;;;2.90;;
34060;SDS011;20336;-33.424;-70.638;2023-10-08T03:23:31;10.87;;;3.10;;
34060;SDS011;20336;-33.424;-70.638;2023-10-08T03:26:02;8.37;;;2.80;;
34060;SDS011;20336;-33.424;-70.638;2023-10-08T03:28:59;7.07;;;2.70;;
34060;SDS011;20336;-33.424;-70.638;2023-10-08T03:31:31;9.93;;;3.10;;
34060;SDS011;20336;-33.424;-70.638;2023-10-08T03:34:14;8.93;;;3.27;;
34060;SDS011;20336;-33.424;-70.638;2023-10-08T03:36:41;7.73;;;2.90;;
34060;SDS011;20336;-33.424;-70.638;2023-10-08T03:39:11;18.87;;;8.50;;
34060;SDS011;20336;-33.424;-70.638;2023-10-08T03:41:42;18.00;;;8.53;;
34060;SDS011;20336;-33.424;-70.638;2023-10-08T03:44:23;15.17;;;7.30;;
34060;SDS011;20336;-33.424;-70.638;2023-10-08T03:46:50;8.90;;;4.83;;
34060;SDS011;20336;-33.424;-70.638;2023-10-08T03:49:18;15.67;;;4.30;;
34060;SDS011;20336;-33.424;-70.638;2023-10-08T03:51:48;13.70;;;5.67;;
34060;SDS011;20336;-33.424;-70.638;2023-10-08T03:54:19;10.70;;;5.07;;
34060;SDS011;20336;-33.424;-70.638;2023-10-08T03:56:59;13.53;;;4.13;;
34060;SDS011;20336;-33.424;-70.638;2023-10-08T03:59:27;11.20;;;4.27;;
34060;SDS011;20336;-33.424;-70.638;2023-10-08T04:01:54;10.10;;;2.63;;
34060;SDS011;20336;-33.424;-70.638;2023-10-08T04:04:25;6.93;;;2.87;;
34060;SDS011;20336;-33.424;-70.638;2023-10-08T04:07:18;10.23;;;3.00;;
34060;SDS011;20336;-33.424;-70.638;2023-10-08T04:10:04;16.27;;;2.90;;
34060;SDS011;20336;-33.424;-70.638;2023-10-08T04:12:34;10.03;;;3.23;;
34060;SDS011;20336;-33.424;-70.638;2023-10-08T04:15:05;10.43;;;3.20;;
34060;SDS011;20336;-33.424;-70.638;2023-10-08T04:17:33;9.63;;;2.90;;
34060;SDS011;20336;-33.424;-70.638;2023-10-08T04:20:14;6.27;;;2.60;;
34060;SDS011;20336;-33.424;-70.638;2023-10-08T04:23:04;8.03;;;2.73;;
34060;SDS011;20336;-33.424;-70.638;2023-10-08T04:25:39;9.07;;;3.00;;
34060;SDS011;20336;-33.424;-70.638;2023-10-08T04:28:09;8.57;;;3.07;;
34060;SDS011;20336;-33.424;-70.638;2023-10-08T04:30:46;7.40;;;3.20;;
34060;SDS011;20336;-33.424;-70.638;2023-10-08T04:33:13;7.27;;;3.13;;
34060;SDS011;20336;-33.424;-70.638;2023-10-08T04:35:41;11.67;;;3.50;;
34060;SDS011;20336;-33.424;-70.638;2023-10-08T04:38:22;6.20;;;2.90;;
34060;SDS011;20336;-33.424;-70.638;2023-10-08T04:40:51;8.97;;;2.87;;
34060;SDS011;20336;-33.424;-70.638;2023-10-08T04:43:19;11.00;;;3.43;;
34060;SDS011;20336;-33.424;-70.638;2023-10-08T04:45:54;12.63;;;3.23;;
34060;SDS011;20336;-33.424;-70.638;2023-10-08T04:48:24;7.33;;;2.77;;
34060;SDS011;20336;-33.424;-70.638;2023-10-08T04:50:53;13.07;;;3.83;;
34060;SDS011;20336;-33.424;-70.638;2023-10-08T04:53:28;10.63;;;3.33;;
34060;SDS011;20336;-33.424;-70.638;2023-10-08T04:56:02;8.90;;;3.03;;
34060;SDS011;20336;-33.424;-70.638;2023-10-08T04:58:39;9.77;;;3.40;;
34060;SDS011;20336;-33.424;-70.638;2023-10-08T05:01:06;11.20;;;3.57;;
34060;SDS011;20336;-33.424;-70.638;2023-10-08T05:03:44;10.33;;;3.17;;
34060;SDS011;20336;-33.424;-70.638;2023-10-08T05:06:32;9.37;;;2.97;;
34060;SDS011;20336;-33.424;-70.638;2023-10-08T05:09:06;7.90;;;3.03;;
34060;SDS011;20336;-33.424;-70.638;2023-10-08T05:11:46;14.53;;;5.77;;
34060;SDS011;20336;-33.424;-70.638;2023-10-08T05:14:20;15.03;;;5.37;;
34060;SDS011;20336;-33.424;-70.638;2023-10-08T05:17:03;13.50;;;4.10;;
34060;SDS011;20336;-33.424;-70.638;2023-10-08T05:19:35;17.17;;;4.60;;
34060;SDS011;20336;-33.424;-70.638;2023-10-08T05:22:05;10.60;;;4.13;;
34060;SDS011;20336;-33.424;-70.638;2023-10-08T05:24:50;15.50;;;3.70;;
34060;SDS011;20336;-33.424;-70.638;2023-10-08T05:27:40;14.20;;;6.40;;
34060;SDS011;20336;-33.424;-70.638;2023-10-08T05:30:13;18.13;;;7.37;;
34060;SDS011;20336;-33.424;-70.638;2023-10-08T05:33:07;27.50;;;10.23;;
34060;SDS011;20336;-33.424;-70.638;2023-10-08T05:35:45;8.67;;;4.13;;
34060;SDS011;20336;-33.424;-70.638;2023-10-08T05:38:20;15.40;;;6.40;;
34060;SDS011;20336;-33.424;-70.638;2023-10-08T05:41:04;10.27;;;4.53;;
34060;SDS011;20336;-33.424;-70.638;2023-10-08T05:43:38;11.60;;;3.87;;
34060;SDS011;20336;-33.424;-70.638;2023-10-08T05:46:12;9.67;;;4.03;;
34060;SDS011;20336;-33.424;-70.638;2023-10-08T05:48:48;12.57;;;4.17;;
34060;SDS011;20336;-33.424;-70.638;2023-10-08T05:51:37;19.80;;;4.37;;
34060;SDS011;20336;-33.424;-70.638;2023-10-08T05:54:20;14.17;;;4.03;;
34060;SDS011;20336;-33.424;-70.638;2023-10-08T05:56:57;10.57;;;4.33;;
34060;SDS011;20336;-33.424;-70.638;2023-10-08T05:59:46;14.60;;;4.27;;
34060;SDS011;20336;-33.424;-70.638;2023-10-08T06:02:23;13.63;;;4.87;;
34060;SDS011;20336;-33.424;-70.638;2023-10-08T06:04:54;12.87;;;4.83;;
34060;SDS011;20336;-33.424;-70.638;2023-10-08T06:10:22;10.20;;;4.00;;
34060;SDS011;20336;-33.424;-70.638;2023-10-08T06:13:17;7.80;;;3.73;;
34060;SDS011;20336;-33.424;-70.638;2023-10-08T06:15:56;10.97;;;4.70;;
34060;SDS011;20336;-33.424;-70.638;2023-10-08T06:18:26;8.10;;;3.90;;
34060;SDS011;20336;-33.424;-70.638;2023-10-08T06:20:58;10.70;;;4.00;;
34060;SDS011;20336;-33.424;-70.638;2023-10-08T06:23:26;14.80;;;4.37;;
34060;SDS011;20336;-33.424;-70.638;2023-10-08T06:25:54;12.73;;;4.23;;
34060;SDS011;20336;-33.424;-70.638;2023-10-08T06:28:24;12.93;;;4.57;;
34060;SDS011;20336;-33.424;-70.638;2023-10-08T06:30:53;10.60;;;4.37;;
34060;SDS011;20336;-33.424;-70.638;2023-10-08T06:33:21;8.40;;;4.07;;
34060;SDS011;20336;-33.424;-70.638;2023-10-08T06:35:48;8.93;;;4.40;;
34060;SDS011;20336;-33.424;-70.638;2023-10-08T06:38:31;8.97;;;4.50;;
34060;SDS011;20336;-33.424;-70.638;2023-10-08T06:41:01;20.17;;;4.20;;
34060;SDS011;20336;-33.424;-70.638;2023-10-08T06:43:36;10.50;;;4.30;;
34060;SDS011;20336;-33.424;-70.638;2023-10-08T06:46:03;10.93;;;3.87;;
34060;SDS011;20336;-33.424;-70.638;2023-10-08T06:48:33;11.07;;;4.20;;
34060;SDS011;20336;-33.424;-70.638;2023-10-08T06:51:03;11.50;;;4.97;;
34060;SDS011;20336;-33.424;-70.638;2023-10-08T06:53:44;13.03;;;6.37;;
34060;SDS011;20336;-33.424;-70.638;2023-10-08T06:56:11;12.93;;;5.10;;
34060;SDS011;20336;-33.424;-70.638;2023-10-08T06:58:39;14.87;;;5.17;;
34060;SDS011;20336;-33.424;-70.638;2023-10-08T07:01:11;11.77;;;4.80;;
34060;SDS011;20336;-33.424;-70.638;2023-10-08T07:03:38;14.50;;;4.23;;
34060;SDS011;20336;-33.424;-70.638;2023-10-08T07:06:05;12.43;;;4.60;;
34060;SDS011;20336;-33.424;-70.638;2023-10-08T07:08:51;11.73;;;4.60;;
34060;SDS011;20336;-33.424;-70.638;2023-10-08T07:11:24;12.53;;;4.70;;
34060;SDS011;20336;-33.424;-70.638;2023-10-08T07:13:52;11.77;;;4.53;;
34060;SDS011;20336;-33.424;-70.638;2023-10-08T07:16:20;11.27;;;4.07;;
34060;SDS011;20336;-33.424;-70.638;2023-10-08T07:18:48;11.83;;;4.90;;
34060;SDS011;20336;-33.424;-70.638;2023-10-08T07:21:21;12.00;;;4.43;;
34060;SDS011;20336;-33.424;-70.638;2023-10-08T07:24:08;10.10;;;4.67;;
34060;SDS011;20336;-33.424;-70.638;2023-10-08T07:26:40;13.97;;;4.33;;
34060;SDS011;20336;-33.424;-70.638;2023-10-08T07:29:12;9.63;;;4.80;;
34060;SDS011;20336;-33.424;-70.638;2023-10-08T07:31:43;15.13;;;4.23;;
34060;SDS011;20336;-33.424;-70.638;2023-10-08T07:34:19;12.30;;;4.87;;
34060;SDS011;20336;-33.424;-70.638;2023-10-08T07:36:49;12.40;;;4.70;;
34060;SDS011;20336;-33.424;-70.638;2023-10-08T07:39:20;13.03;;;5.17;;
34060;SDS011;20336;-33.424;-70.638;2023-10-08T07:41:51;15.77;;;5.10;;
34060;SDS011;20336;-33.424;-70.638;2023-10-08T07:44:23;16.37;;;4.27;;
34060;SDS011;20336;-33.424;-70.638;2023-10-08T07:46:50;8.67;;;4.23;;
34060;SDS011;20336;-33.424;-70.638;2023-10-08T07:49:20;9.27;;;4.20;;
34060;SDS011;20336;-33.424;-70.638;2023-10-08T07:51:48;12.03;;;4.50;;
34060;SDS011;20336;-33.424;-70.638;2023-10-08T07:54:20;14.67;;;4.70;;
34060;SDS011;20336;-33.424;-70.638;2023-10-08T07:56:48;14.17;;;5.20;;
34060;SDS011;20336;-33.424;-70.638;2023-10-08T07:59:25;13.03;;;5.50;;
34060;SDS011;20336;-33.424;-70.638;2023-10-08T08:01:51;11.80;;;5.17;;
34060;SDS011;20336;-33.424;-70.638;2023-10-08T08:04:19;19.40;;;4.97;;
34060;SDS011;20336;-33.424;-70.638;2023-10-08T08:06:49;13.27;;;5.53;;
34060;SDS011;20336;-33.424;-70.638;2023-10-08T08:09:19;12.07;;;5.07;;
34060;SDS011;20336;-33.424;-70.638;2023-10-08T08:11:46;10.27;;;5.60;;
34060;SDS011;20336;-33.424;-70.638;2023-10-08T08:14:14;13.03;;;5.27;;
34060;SDS011;20336;-33.424;-70.638;2023-10-08T08:16:50;14.30;;;5.07;;
34060;SDS011;20336;-33.424;-70.638;2023-10-08T08:19:17;12.43;;;4.60;;
34060;SDS011;20336;-33.424;-70.638;2023-10-08T08:21:50;9.03;;;4.63;;
34060;SDS011;20336;-33.424;-70.638;2023-10-08T08:24:18;8.17;;;4.33;;
34060;SDS011;20336;-33.424;-70.638;2023-10-08T08:27:11;8.00;;;3.73;;
34060;SDS011;20336;-33.424;-70.638;2023-10-08T08:29:52;9.67;;;3.80;;
34060;SDS011;20336;-33.424;-70.638;2023-10-08T08:32:27;10.50;;;4.20;;
34060;SDS011;20336;-33.424;-70.638;2023-10-08T08:34:54;7.97;;;3.70;;
34060;SDS011;20336;-33.424;-70.638;2023-10-08T08:37:21;12.67;;;3.67;;
34060;SDS011;20336;-33.424;-70.638;2023-10-08T08:39:51;7.03;;;3.30;;
34060;SDS011;20336;-33.424;-70.638;2023-10-08T08:42:19;9.37;;;3.50;;
34060;SDS011;20336;-33.424;-70.638;2023-10-08T08:44:52;9.83;;;3.50;;
34060;SDS011;20336;-33.424;-70.638;2023-10-08T08:47:21;9.90;;;4.10;;
34060;SDS011;20336;-33.424;-70.638;2023-10-08T08:49:50;7.27;;;3.50;;
34060;SDS011;20336;-33.424;-70.638;2023-10-08T08:52:20;7.33;;;3.17;;
34060;SDS011;20336;-33.424;-70.638;2023-10-08T08:54:48;9.43;;;3.73;;
34060;SDS011;20336;-33.424;-70.638;2023-10-08T08:57:14;13.20;;;4.10;;
34060;SDS011;20336;-33.424;-70.638;2023-10-08T08:59:49;8.30;;;3.80;;
34060;SDS011;20336;-33.424;-70.638;2023-10-08T09:02:18;9.37;;;3.73;;
34060;SDS011;20336;-33.424;-70.638;2023-10-08T09:04:53;13.07;;;4.40;;
34060;SDS011;20336;-33.424;-70.638;2023-10-08T09:07:20;10.30;;;3.90;;
34060;SDS011;20336;-33.424;-70.638;2023-10-08T09:09:47;10.57;;;4.40;;
34060;SDS011;20336;-33.424;-70.638;2023-10-08T09:12:17;11.23;;;4.30;;
34060;SDS011;20336;-33.424;-70.638;2023-10-08T09:14:47;9.23;;;4.67;;
34060;SDS011;20336;-33.424;-70.638;2023-10-08T09:17:13;7.63;;;4.27;;
34060;SDS011;20336;-33.424;-70.638;2023-10-08T09:19:43;9.07;;;4.30;;
34060;SDS011;20336;-33.424;-70.638;2023-10-08T09:22:11;43.60;;;8.03;;
34060;SDS011;20336;-33.424;-70.638;2023-10-08T09:24:38;17.17;;;4.57;;
34060;SDS011;20336;-33.424;-70.638;2023-10-08T09:27:06;15.57;;;4.53;;
34060;SDS011;20336;-33.424;-70.638;2023-10-08T09:29:36;6.40;;;3.73;;
34060;SDS011;20336;-33.424;-70.638;2023-10-08T09:32:10;7.30;;;3.60;;
34060;SDS011;20336;-33.424;-70.638;2023-10-08T09:34:39;7.37;;;3.47;;
34060;SDS011;20336;-33.424;-70.638;2023-10-08T09:37:06;7.13;;;3.40;;
34060;SDS011;20336;-33.424;-70.638;2023-10-08T09:39:33;7.90;;;4.00;;
34060;SDS011;20336;-33.424;-70.638;2023-10-08T09:42:01;7.07;;;3.60;;
34060;SDS011;20336;-33.424;-70.638;2023-10-08T09:44:29;8.33;;;3.80;;
34060;SDS011;20336;-33.424;-70.638;2023-10-08T09:47:05;9.07;;;4.30;;
34060;SDS011;20336;-33.424;-70.638;2023-10-08T09:49:39;9.83;;;4.00;;
34060;SDS011;20336;-33.424;-70.638;2023-10-08T09:52:10;12.43;;;4.03;;
34060;SDS011;20336;-33.424;-70.638;2023-10-08T09:54:44;11.40;;;3.80;;
34060;SDS011;20336;-33.424;-70.638;2023-10-08T09:57:13;8.10;;;4.00;;
34060;SDS011;20336;-33.424;-70.638;2023-10-08T09:59:44;15.70;;;4.83;;
34060;SDS011;20336;-33.424;-70.638;2023-10-08T10:02:11;9.13;;;4.90;;
34060;SDS011;20336;-33.424;-70.638;2023-10-08T10:04:41;9.60;;;4.40;;
34060;SDS011;20336;-33.424;-70.638;2023-10-08T10:07:10;12.07;;;4.47;;
34060;SDS011;20336;-33.424;-70.638;2023-10-08T10:09:38;10.77;;;4.60;;
34060;SDS011;20336;-33.424;-70.638;2023-10-08T10:12:06;9.73;;;4.80;;
34060;SDS011;20336;-33.424;-70.638;2023-10-08T10:14:41;12.07;;;4.23;;
34060;SDS011;20336;-33.424;-70.638;2023-10-08T10:17:09;7.60;;;4.33;;
34060;SDS011;20336;-33.424;-70.638;2023-10-08T10:19:40;12.50;;;4.17;;
34060;SDS011;20336;-33.424;-70.638;2023-10-08T10:22:14;9.80;;;4.13;;
34060;SDS011;20336;-33.424;-70.638;2023-10-08T10:24:41;9.03;;;3.70;;
34060;SDS011;20336;-33.424;-70.638;2023-10-08T10:27:11;9.13;;;4.20;;
34060;SDS011;20336;-33.424;-70.638;2023-10-08T10:29:40;9.47;;;4.67;;
34060;SDS011;20336;-33.424;-70.638;2023-10-08T10:32:13;7.03;;;3.80;;
34060;SDS011;20336;-33.424;-70.638;2023-10-08T10:34:44;8.10;;;4.00;;
34060;SDS011;20336;-33.424;-70.638;2023-10-08T10:37:18;7.83;;;4.70;;
34060;SDS011;20336;-33.424;-70.638;2023-10-08T10:39:52;13.13;;;5.00;;
34060;SDS011;20336;-33.424;-70.638;2023-10-08T10:42:21;9.40;;;4.93;;
34060;SDS011;20336;-33.424;-70.638;2023-10-08T10:44:48;9.63;;;3.97;;
34060;SDS011;20336;-33.424;-70.638;2023-10-08T10:47:16;11.20;;;4.10;;
34060;SDS011;20336;-33.424;-70.638;2023-10-08T10:49:53;9.53;;;4.70;;
34060;SDS011;20336;-33.424;-70.638;2023-10-08T10:52:24;7.90;;;4.10;;
34060;SDS011;20336;-33.424;-70.638;2023-10-08T10:55:04;7.60;;;4.23;;
34060;SDS011;20336;-33.424;-70.638;2023-10-08T10:57:55;10.20;;;4.17;;
34060;SDS011;20336;-33.424;-70.638;2023-10-08T11:00:30;10.63;;;4.50;;
34060;SDS011;20336;-33.424;-70.638;2023-10-08T11:03:01;8.17;;;4.17;;
34060;SDS011;20336;-33.424;-70.638;2023-10-08T11:05:32;9.17;;;4.37;;
34060;SDS011;20336;-33.424;-70.638;2023-10-08T11:08:02;7.53;;;4.37;;
34060;SDS011;20336;-33.424;-70.638;2023-10-08T11:10:34;7.53;;;3.70;;
34060;SDS011;20336;-33.424;-70.638;2023-10-08T11:13:04;9.53;;;4.60;;
34060;SDS011;20336;-33.424;-70.638;2023-10-08T11:15:39;13.47;;;4.93;;
34060;SDS011;20336;-33.424;-70.638;2023-10-08T11:18:10;12.33;;;4.67;;
34060;SDS011;20336;-33.424;-70.638;2023-10-08T11:20:37;9.40;;;4.70;;
34060;SDS011;20336;-33.424;-70.638;2023-10-08T11:23:10;9.80;;;4.37;;
34060;SDS011;20336;-33.424;-70.638;2023-10-08T11:25:54;10.97;;;4.47;;
34060;SDS011;20336;-33.424;-70.638;2023-10-08T11:28:25;12.00;;;5.40;;
34060;SDS011;20336;-33.424;-70.638;2023-10-08T11:30:53;9.63;;;5.07;;
34060;SDS011;20336;-33.424;-70.638;2023-10-08T11:33:22;12.63;;;5.03;;
34060;SDS011;20336;-33.424;-70.638;2023-10-08T11:35:56;13.47;;;5.17;;
34060;SDS011;20336;-33.424;-70.638;2023-10-08T11:38:26;9.90;;;4.93;;
34060;SDS011;20336;-33.424;-70.638;2023-10-08T11:40:54;12.50;;;5.37;;
34060;SDS011;20336;-33.424;-70.638;2023-10-08T11:43:24;11.23;;;5.00;;
34060;SDS011;20336;-33.424;-70.638;2023-10-08T11:45:51;9.47;;;4.70;;
34060;SDS011;20336;-33.424;-70.638;2023-10-08T11:48:18;16.07;;;4.60;;
34060;SDS011;20336;-33.424;-70.638;2023-10-08T11:51:04;13.17;;;4.83;;
34060;SDS011;20336;-33.424;-70.638;2023-10-08T11:53:31;9.53;;;4.90;;
34060;SDS011;20336;-33.424;-70.638;2023-10-08T11:56:02;15.43;;;5.30;;
34060;SDS011;20336;-33.424;-70.638;2023-10-08T11:58:34;14.43;;;4.70;;
34060;SDS011;20336;-33.424;-70.638;2023-10-08T12:01:03;11.57;;;4.93;;
34060;SDS011;20336;-33.424;-70.638;2023-10-08T12:03:30;13.07;;;4.87;;
34060;SDS011;20336;-33.424;-70.638;2023-10-08T12:05:57;11.80;;;4.90;;
34060;SDS011;20336;-33.424;-70.638;2023-10-08T12:08:27;9.00;;;5.30;;
34060;SDS011;20336;-33.424;-70.638;2023-10-08T12:10:54;11.50;;;5.20;;
34060;SDS011;20336;-33.424;-70.638;2023-10-08T12:13:21;13.73;;;5.30;;
34060;SDS011;20336;-33.424;-70.638;2023-10-08T12:15:54;13.63;;;5.60;;
34060;SDS011;20336;-33.424;-70.638;2023-10-08T12:18:44;12.07;;;5.47;;
34060;SDS011;20336;-33.424;-70.638;2023-10-08T12:21:14;11.37;;;5.10;;
34060;SDS011;20336;-33.424;-70.638;2023-10-08T12:23:43;8.57;;;5.03;;
34060;SDS011;20336;-33.424;-70.638;2023-10-08T12:26:12;11.33;;;5.57;;
34060;SDS011;20336;-33.424;-70.638;2023-10-08T12:28:44;11.37;;;5.33;;
34060;SDS011;20336;-33.424;-70.638;2023-10-08T12:31:12;14.87;;;5.83;;
34060;SDS011;20336;-33.424;-70.638;2023-10-08T12:33:41;11.27;;;6.30;;
34060;SDS011;20336;-33.424;-70.638;2023-10-08T12:36:09;11.50;;;5.40;;
34060;SDS011;20336;-33.424;-70.638;2023-10-08T12:38:37;13.27;;;5.70;;
34060;SDS011;20336;-33.424;-70.638;2023-10-08T12:41:04;12.13;;;5.90;;
34060;SDS011;20336;-33.424;-70.638;2023-10-08T12:43:37;11.00;;;6.30;;
34060;SDS011;20336;-33.424;-70.638;2023-10-08T12:46:04;17.77;;;5.83;;
34060;SDS011;20336;-33.424;-70.638;2023-10-08T12:48:36;13.17;;;6.63;;
34060;SDS011;20336;-33.424;-70.638;2023-10-08T12:51:03;12.40;;;5.90;;
34060;SDS011;20336;-33.424;-70.638;2023-10-08T12:53:31;14.13;;;7.00;;
34060;SDS011;20336;-33.424;-70.638;2023-10-08T12:56:05;14.53;;;7.07;;
34060;SDS011;20336;-33.424;-70.638;2023-10-08T12:58:36;17.53;;;7.33;;
34060;SDS011;20336;-33.424;-70.638;2023-10-08T13:01:15;15.27;;;8.10;;
34060;SDS011;20336;-33.424;-70.638;2023-10-08T13:03:43;14.30;;;7.97;;
34060;SDS011;20336;-33.424;-70.638;2023-10-08T13:06:14;17.00;;;8.07;;
34060;SDS011;20336;-33.424;-70.638;2023-10-08T13:08:50;12.00;;;7.90;;
34060;SDS011;20336;-33.424;-70.638;2023-10-08T13:11:18;15.27;;;7.67;;
34060;SDS011;20336;-33.424;-70.638;2023-10-08T13:13:49;18.27;;;8.23;;
34060;SDS011;20336;-33.424;-70.638;2023-10-08T13:16:16;13.60;;;7.50;;
34060;SDS011;20336;-33.424;-70.638;2023-10-08T13:18:43;14.27;;;7.38;;
34060;SDS011;20336;-33.424;-70.638;2023-10-08T13:21:11;16.20;;;7.20;;
34060;SDS011;20336;-33.424;-70.638;2023-10-08T13:23:38;18.95;;;7.50;;
34060;SDS011;20336;-33.424;-70.638;2023-10-08T13:26:05;15.13;;;7.30;;
34060;SDS011;20336;-33.424;-70.638;2023-10-08T13:28:35;15.48;;;7.05;;
34060;SDS011;20336;-33.424;-70.638;2023-10-08T13:31:03;19.00;;;7.15;;
34060;SDS011;20336;-33.424;-70.638;2023-10-08T13:33:42;14.93;;;7.40;;
34060;SDS011;20336;-33.424;-70.638;2023-10-08T13:36:10;18.33;;;7.45;;
34060;SDS011;20336;-33.424;-70.638;2023-10-08T13:38:39;15.15;;;7.15;;
34060;SDS011;20336;-33.424;-70.638;2023-10-08T13:41:07;14.35;;;7.00;;
34060;SDS011;20336;-33.424;-70.638;2023-10-08T13:43:47;12.52;;;7.20;;
34060;SDS011;20336;-33.424;-70.638;2023-10-08T13:46:17;15.35;;;7.15;;
34060;SDS011;20336;-33.424;-70.638;2023-10-08T13:48:45;15.45;;;7.60;;
34060;SDS011;20336;-33.424;-70.638;2023-10-08T13:51:16;13.98;;;7.70;;
34060;SDS011;20336;-33.424;-70.638;2023-10-08T13:53:50;12.65;;;6.72;;
34060;SDS011;20336;-33.424;-70.638;2023-10-08T13:56:25;12.15;;;6.70;;
34060;SDS011;20336;-33.424;-70.638;2023-10-08T13:58:52;15.98;;;7.93;;
34060;SDS011;20336;-33.424;-70.638;2023-10-08T14:01:39;21.65;;;8.15;;
34060;SDS011;20336;-33.424;-70.638;2023-10-08T14:04:12;20.15;;;7.88;;
34060;SDS011;20336;-33.424;-70.638;2023-10-08T14:06:42;15.35;;;7.97;;
34060;SDS011;20336;-33.424;-70.638;2023-10-08T14:09:20;16.75;;;7.97;;
34060;SDS011;20336;-33.424;-70.638;2023-10-08T14:11:56;20.50;;;9.23;;
34060;SDS011;20336;-33.424;-70.638;2023-10-08T14:14:24;16.67;;;8.65;;
34060;SDS011;20336;-33.424;-70.638;2023-10-08T14:16:55;20.63;;;8.50;;
34060;SDS011;20336;-33.424;-70.638;2023-10-08T14:19:25;21.30;;;9.32;;
34060;SDS011;20336;-33.424;-70.638;2023-10-08T14:22:15;21.25;;;9.75;;
34060;SDS011;20336;-33.424;-70.638;2023-10-08T14:24:44;17.83;;;8.70;;
34060;SDS011;20336;-33.424;-70.638;2023-10-08T14:27:12;18.85;;;8.77;;
34060;SDS011;20336;-33.424;-70.638;2023-10-08T14:29:41;19.73;;;8.30;;